Time;durP1;ratioP1;P1;durP2;ratioP2;P2;SDS_P1;SDS_P2;PMS_P1;PMS_P2;Temp;Humidity;BMP_temperature;BMP_pressure;BME280_temperature;BME280_humidity;BME280_pressure;Samples;Min_cycle;Max_cycle;Signal;HPM_P1;HPM_P2
2022/04/01 00:00:43;;;;;;;31.23;7.47;;;;;;;18.34;48.47;93052.00;5092096;28;20189;-76
2022/04/01 00:03:10;;;;;;;37.90;7.00;;;;;;;18.36;48.23;93067.34;5076304;28;20222;-76
2022/04/01 00:05:39;;;;;;;37.27;6.40;;;;;;;18.30;48.21;93045.72;5071849;28;20191;-76
2022/04/01 00:08:06;;;;;;;28.83;6.83;;;;;;;18.39;48.01;93064.28;5070017;28;20186;-76
2022/04/01 00:10:33;;;;;;;28.03;6.37;;;;;;;18.37;48.21;93043.81;5071707;28;20683;-78
2022/04/01 00:13:01;;;;;;;35.00;7.77;;;;;;;18.37;48.26;93068.91;5083829;28;20182;-81
2022/04/01 00:15:28;;;;;;;26.30;6.37;;;;;;;18.35;48.38;93053.63;5092135;28;20653;-81
2022/04/01 00:17:56;;;;;;;32.33;6.83;;;;;;;18.30;48.57;93048.31;5092179;28;20186;-78
2022/04/01 00:20:23;;;;;;;26.73;7.17;;;;;;;18.21;48.79;93024.56;5092334;28;20235;-78
2022/04/01 00:22:50;;;;;;;21.60;6.57;;;;;;;18.25;49.26;93054.16;5092105;28;20225;-80
2022/04/01 00:25:17;;;;;;;22.77;6.97;;;;;;;18.20;49.12;93020.41;5091905;28;20203;-81
2022/04/01 00:27:44;;;;;;;26.87;6.40;;;;;;;18.19;49.84;93049.09;5091984;28;20185;-77
2022/04/01 00:30:13;;;;;;;25.83;6.93;;;;;;;18.09;50.11;93043.69;5091773;28;20253;-78
2022/04/01 00:32:40;;;;;;;28.70;7.20;;;;;;;18.05;50.51;93033.00;5091136;28;20182;-78
2022/04/01 00:35:07;;;;;;;28.20;6.23;;;;;;;18.03;50.82;93043.56;5091926;28;20193;-81
2022/04/01 00:37:34;;;;;;;27.37;7.43;;;;;;;18.00;51.28;93050.97;5091683;28;20200;-77
2022/04/01 00:40:01;;;;;;;22.33;6.37;;;;;;;17.99;51.36;93052.00;5091890;28;20190;-80
2022/04/01 00:42:30;;;;;;;27.70;7.00;;;;;;;17.92;51.70;93054.72;5091729;28;20210;-81
2022/04/01 00:44:58;;;;;;;29.83;6.60;;;;;;;17.86;52.01;93076.25;5091884;28;20194;-82
2022/04/01 00:47:26;;;;;;;30.80;6.97;;;;;;;17.67;52.37;93025.63;5091498;28;20229;-76
2022/04/01 00:49:55;;;;;;;26.00;5.97;;;;;;;17.68;52.38;93035.72;5091564;28;20660;-77
2022/04/01 00:52:23;;;;;;;23.30;6.77;;;;;;;17.70;52.53;93028.56;5090967;28;20230;-79
2022/04/01 00:54:51;;;;;;;30.37;7.00;;;;;;;17.60;52.72;93033.47;5091532;28;20197;-78
2022/04/01 00:57:19;;;;;;;26.27;6.10;;;;;;;17.59;52.70;93055.16;5091614;28;20280;-79
2022/04/01 00:59:47;;;;;;;25.63;7.60;;;;;;;17.55;52.70;93054.03;5091890;28;20178;-78
2022/04/01 01:02:14;;;;;;;32.23;8.77;;;;;;;17.53;52.95;93030.19;5091022;28;20210;-83
2022/04/01 01:04:42;;;;;;;35.13;8.50;;;;;;;17.49;53.00;93049.75;5091771;28;20186;-79
2022/04/01 01:07:09;;;;;;;23.03;6.87;;;;;;;17.44;52.85;93026.34;5090485;28;20201;-76
2022/04/01 01:09:36;;;;;;;28.03;7.43;;;;;;;17.37;53.12;93034.19;5091249;28;20197;-77
2022/04/01 01:12:06;;;;;;;26.23;7.37;;;;;;;17.40;53.02;93026.00;5090682;28;20576;-78
2022/04/01 01:14:35;;;;;;;24.77;7.73;;;;;;;17.43;53.10;93040.28;5090643;28;20213;-79
2022/04/01 01:17:04;;;;;;;23.43;7.63;;;;;;;17.44;53.17;93070.25;5090836;28;20193;-80
2022/04/01 01:19:31;;;;;;;25.23;7.10;;;;;;;17.42;53.11;93059.38;5090601;28;20556;-82
2022/04/01 01:21:59;;;;;;;29.77;7.60;;;;;;;17.43;53.17;93046.22;5090524;28;20599;-81
2022/04/01 01:24:30;;;;;;;26.63;7.40;;;;;;;17.41;53.04;93050.84;5090593;28;20234;-83
2022/04/01 01:26:57;;;;;;;26.43;7.50;;;;;;;17.41;52.90;93052.63;5091029;28;20194;-83
2022/04/01 01:29:26;;;;;;;24.40;7.73;;;;;;;17.41;53.00;93047.47;5090807;28;20189;-82
2022/04/01 01:31:54;;;;;;;28.40;7.37;;;;;;;17.37;52.93;93013.53;5090345;28;20734;-80
2022/04/01 01:34:21;;;;;;;34.07;8.13;;;;;;;17.40;52.97;93032.94;5090919;28;20185;-81
2022/04/01 01:36:50;;;;;;;30.03;7.67;;;;;;;17.40;53.04;93026.00;5090825;28;20188;-84
2022/04/01 01:39:16;;;;;;;30.40;8.43;;;;;;;17.37;52.89;93043.75;5090828;28;20194;-78
2022/04/01 01:41:45;;;;;;;30.13;7.77;;;;;;;17.40;53.03;93027.78;5090951;28;20182;-76
2022/04/01 01:44:12;;;;;;;39.57;8.27;;;;;;;17.42;53.00;93005.09;5090028;28;20182;-80
2022/04/01 01:46:40;;;;;;;30.67;8.20;;;;;;;17.37;52.70;93015.31;5090498;28;20201;-80
2022/04/01 01:49:07;;;;;;;38.47;8.43;;;;;;;17.35;52.72;93018.09;5090457;28;20560;-79
2022/04/01 01:57:05;;;;;;;43.37;8.03;;;;;;;17.44;52.58;93003.88;5090462;28;20648;-77
2022/04/01 01:59:33;;;;;;;33.63;8.20;;;;;;;17.44;52.23;92978.03;5090414;28;20189;-80
2022/04/01 02:02:03;;;;;;;45.80;9.17;;;;;;;17.45;52.16;92973.66;5090612;28;20221;-79
2022/04/01 02:04:30;;;;;;;41.40;10.63;;;;;;;17.46;52.18;92964.91;5090389;28;20193;-78
2022/04/01 02:06:57;;;;;;;43.60;9.67;;;;;;;17.47;52.17;92945.78;5090077;28;20194;-83
2022/04/01 02:09:24;;;;;;;48.37;9.87;;;;;;;17.48;51.95;92986.91;5090025;28;20568;-79
2022/04/01 02:11:51;;;;;;;49.03;8.93;;;;;;;17.51;52.01;92965.00;5090045;28;20189;-83
2022/04/01 02:14:20;;;;;;;37.40;8.03;;;;;;;17.52;52.04;92980.28;5089822;28;20184;-79
2022/04/01 02:16:47;;;;;;;48.80;9.97;;;;;;;17.54;51.66;92975.69;5090380;28;20184;-83
2022/04/01 02:19:20;;;;;;;43.63;8.37;;;;;;;17.58;51.82;92936.50;5089334;28;20272;-80
2022/04/01 02:21:49;;;;;;;49.77;9.80;;;;;;;17.58;51.70;92968.28;5089743;28;20310;-81
2022/04/01 02:24:17;;;;;;;45.17;9.03;;;;;;;17.54;51.67;92929.19;5089552;28;20251;-79
2022/04/01 02:26:47;;;;;;;32.30;8.17;;;;;;;17.57;51.46;92951.19;5090368;28;20626;-79
2022/04/01 02:29:15;;;;;;;42.27;8.43;;;;;;;17.56;51.42;92916.00;5090003;28;20185;-83
2022/04/01 02:31:43;;;;;;;43.93;10.07;;;;;;;17.60;51.69;92930.06;5090069;28;20201;-77
2022/04/01 02:34:10;;;;;;;47.77;9.43;;;;;;;17.58;51.42;92911.44;5089831;28;20201;-77
2022/04/01 02:36:37;;;;;;;38.57;9.63;;;;;;;17.62;51.40;92899.63;5089804;28;20196;-79
2022/04/01 02:39:05;;;;;;;39.23;10.30;;;;;;;17.61;51.53;92898.03;5089768;28;20272;-78
2022/04/01 02:41:32;;;;;;;55.27;9.93;;;;;;;17.53;51.27;92904.34;5090049;28;20177;-78
2022/04/01 02:44:09;;;;;;;41.97;10.13;;;;;;;17.58;51.57;92889.97;5090842;28;20224;-78
2022/04/01 02:46:37;;;;;;;45.20;9.33;;;;;;;17.62;51.42;92891.88;5090811;28;20228;-80
2022/04/01 02:49:07;;;;;;;35.97;9.07;;;;;;;17.55;51.15;92855.00;5089806;28;20216;-80
2022/04/01 02:51:36;;;;;;;47.07;9.60;;;;;;;17.63;51.15;92877.94;5090214;28;20193;-79
2022/04/01 02:54:04;;;;;;;53.90;10.33;;;;;;;17.64;51.14;92882.09;5089731;28;20221;-78
2022/04/01 02:56:32;;;;;;;45.27;9.07;;;;;;;17.66;51.14;92874.09;5089674;28;20243;-78
2022/04/01 02:59:00;;;;;;;49.30;10.43;;;;;;;17.57;50.79;92860.72;5090048;28;20269;-78
2022/04/01 03:01:28;;;;;;;45.90;9.70;;;;;;;17.68;50.62;92861.75;5089807;28;20194;-80
2022/04/01 03:03:55;;;;;;;38.13;9.60;;;;;;;17.68;51.27;92856.56;5092825;28;20217;-77
2022/04/01 03:06:24;;;;;;;45.57;9.63;;;;;;;17.69;50.60;92858.13;5096315;28;20566;-78
2022/04/01 03:08:51;;;;;;;46.27;9.73;;;;;;;17.70;50.34;92841.59;5097631;28;20664;-77
2022/04/01 03:11:18;;;;;;;53.70;10.60;;;;;;;17.71;50.44;92859.50;5092899;28;20190;-78
2022/04/01 03:13:45;;;;;;;40.33;11.37;;;;;;;17.72;50.35;92857.69;5090203;28;20202;-78
2022/04/01 03:16:13;;;;;;;53.90;11.27;;;;;;;17.73;50.07;92872.97;5089218;28;20182;-78
2022/04/01 03:18:40;;;;;;;44.20;10.63;;;;;;;17.76;50.00;92869.97;5089452;28;20217;-80
2022/04/01 03:21:10;;;;;;;51.87;10.57;;;;;;;17.76;49.91;92848.50;5090055;28;20201;-85
2022/04/01 03:23:43;;;;;;;42.53;10.63;;;;;;;17.77;49.89;92857.84;5090608;28;20209;-85
2022/04/01 03:26:11;;;;;;;56.90;11.20;;;;;;;17.78;49.90;92875.69;5089165;28;20664;-83
2022/04/01 03:28:37;;;;;;;48.37;10.30;;;;;;;17.79;49.78;92861.78;5089715;28;20189;-79
2022/04/01 03:31:04;;;;;;;48.50;10.00;;;;;;;17.66;49.78;92859.41;5091729;28;20798;-79
2022/04/01 03:33:33;;;;;;;51.70;11.33;;;;;;;17.76;49.66;92879.53;5092926;28;20683;-81
2022/04/01 03:36:00;;;;;;;50.57;10.93;;;;;;;17.79;49.71;92884.25;5093311;28;20185;-80
2022/04/01 03:38:27;;;;;;;44.00;10.23;;;;;;;17.78;49.38;92852.41;5093575;28;20182;-80
2022/04/01 03:40:55;;;;;;;45.50;9.77;;;;;;;17.81;49.35;92853.78;5093661;28;20189;-79
2022/04/01 03:43:24;;;;;;;50.43;10.53;;;;;;;17.83;49.08;92869.84;5092973;28;20231;-79
2022/04/01 03:45:52;;;;;;;54.63;11.90;;;;;;;17.83;48.96;92863.88;5092718;28;20273;-82
2022/04/01 03:48:26;;;;;;;52.60;12.00;;;;;;;17.86;48.90;92858.28;5093187;28;20181;-82
2022/04/01 03:50:56;;;;;;;53.73;10.77;;;;;;;17.67;48.74;92837.69;5094065;28;20189;-77
2022/04/01 03:53:26;;;;;;;57.83;10.83;;;;;;;17.80;48.94;92859.97;5093716;28;20712;-82
2022/04/01 03:55:56;;;;;;;49.37;10.87;;;;;;;17.89;48.87;92860.41;5092595;28;20246;-78
2022/04/01 03:58:28;;;;;;;38.80;10.40;;;;;;;17.78;48.60;92851.63;5092492;28;20631;-78
2022/04/01 04:00:55;;;;;;;49.57;10.97;;;;;;;17.90;48.62;92854.22;5093574;28;20224;-77
2022/04/01 04:03:23;;;;;;;54.93;11.30;;;;;;;17.84;48.38;92850.75;5093110;28;20594;-78
2022/04/01 04:05:51;;;;;;;62.17;12.27;;;;;;;17.90;48.46;92846.47;5092170;28;20192;-80
2022/04/01 04:08:19;;;;;;;50.93;11.07;;;;;;;17.91;48.42;92848.03;5092033;28;20293;-82
2022/04/01 04:10:47;;;;;;;68.77;11.27;;;;;;;17.92;48.26;92829.72;5092452;28;20193;-82
2022/04/01 04:13:16;;;;;;;61.57;11.27;;;;;;;17.84;48.07;92832.66;5092159;28;20186;-79
2022/04/01 04:15:50;;;;;;;54.77;11.70;;;;;;;17.94;48.07;92827.66;5092250;28;20190;-82
2022/04/01 04:18:18;;;;;;;53.27;11.67;;;;;;;17.97;47.93;92818.69;5091488;28;20758;-80
2022/04/01 04:20:55;;;;;;;77.47;13.97;;;;;;;18.00;47.73;92800.09;5091631;28;20683;-84
2022/04/01 04:23:28;;;;;;;59.87;11.70;;;;;;;18.01;47.51;92792.13;5091747;28;20219;-78
2022/04/01 04:26:01;;;;;;;52.97;11.63;;;;;;;18.00;47.23;92807.84;5089113;28;20190;-82
2022/04/01 04:28:35;;;;;;;61.50;12.97;;;;;;;18.07;47.25;92813.69;5092001;28;20221;-81
2022/04/01 04:31:07;;;;;;;60.20;12.47;;;;;;;18.06;47.06;92819.88;5091342;28;20193;-77
2022/04/01 04:33:34;;;;;;;66.43;11.87;;;;;;;18.15;46.56;92830.66;5091847;28;20188;-79
2022/04/01 04:36:04;;;;;;;59.77;11.93;;;;;;;18.19;46.60;92835.16;5091435;28;20213;-77
2022/04/01 04:38:37;;;;;;;58.00;10.77;;;;;;;18.23;46.50;92833.69;5091536;28;20563;-79
2022/04/01 04:41:08;;;;;;;57.23;11.47;;;;;;;18.26;46.27;92822.88;5091279;28;20319;-80
2022/04/01 04:43:42;;;;;;;64.43;10.63;;;;;;;18.33;46.12;92853.00;5091748;28;20218;-78
2022/04/01 04:46:10;;;;;;;57.27;13.00;;;;;;;18.39;45.97;92849.47;5091086;28;20284;-78
2022/04/01 04:48:41;;;;;;;47.23;11.10;;;;;;;18.41;45.85;92845.66;5090687;28;20178;-82
2022/04/01 04:51:08;;;;;;;51.63;11.20;;;;;;;18.49;45.59;92863.41;5091310;28;20215;-79
2022/04/01 04:53:35;;;;;;;65.50;11.53;;;;;;;18.56;45.46;92874.38;5091335;28;20228;-78
2022/04/01 04:56:03;;;;;;;64.33;12.47;;;;;;;18.63;45.28;92850.19;5092047;28;20225;-89
2022/04/01 04:58:34;;;;;;;64.00;13.10;;;;;;;18.69;45.10;92865.59;5091367;28;20235;-80
2022/04/01 05:01:04;;;;;;;60.73;11.20;;;;;;;18.76;44.96;92866.25;5090995;28;20189;-77
2022/04/01 05:03:47;;;;;;;67.70;11.13;;;;;;;18.82;44.84;92863.72;5090280;28;20225;-76
2022/04/01 05:06:18;;;;;;;63.37;13.43;;;;;;;18.86;44.71;92865.63;5091216;28;20185;-79
2022/04/01 05:08:59;;;;;;;69.10;11.20;;;;;;;18.97;44.56;92853.63;5086506;28;20194;-75
2022/04/01 05:11:35;;;;;;;50.10;10.87;;;;;;;19.03;44.49;92848.28;5088279;28;20208;-81
2022/04/01 05:14:06;;;;;;;59.30;12.70;;;;;;;19.09;44.41;92869.13;5090056;28;20295;-80
2022/04/01 05:16:53;;;;;;;67.30;11.70;;;;;;;19.18;44.26;92857.34;5089831;28;20204;-76
2022/04/01 05:19:25;;;;;;;60.10;12.47;;;;;;;19.25;44.09;92857.97;5087633;28;20197;-80
2022/04/01 05:22:01;;;;;;;67.37;11.63;;;;;;;19.30;44.06;92858.84;5089511;28;20193;-80
2022/04/01 05:24:34;;;;;;;55.27;12.50;;;;;;;19.40;43.80;92852.25;5090158;28;20234;-83
2022/04/01 05:27:05;;;;;;;71.53;12.83;;;;;;;19.42;43.75;92853.56;5089319;28;20194;-80
2022/04/01 05:29:42;;;;;;;58.43;11.80;;;;;;;19.57;43.46;92867.78;5090448;28;20197;-82
2022/04/01 05:32:11;;;;;;;58.27;12.03;;;;;;;19.64;43.29;92864.00;5090211;28;20610;-78
2022/04/01 05:34:40;;;;;;;63.43;13.03;;;;;;;19.72;43.18;92860.22;5090360;28;20197;-82
2022/04/01 05:37:08;;;;;;;67.80;11.10;;;;;;;19.79;42.98;92856.44;5089033;28;20284;-80
2022/04/01 05:39:36;;;;;;;61.47;12.93;;;;;;;19.89;42.71;92855.00;5089623;28;20652;-77
2022/04/01 05:42:06;;;;;;;72.03;12.27;;;;;;;19.98;42.85;92866.53;5089289;28;20213;-81
2022/04/01 05:44:34;;;;;;;75.83;13.13;;;;;;;20.04;42.49;92850.81;5089650;28;20270;-82
2022/04/01 05:47:02;;;;;;;59.10;12.90;;;;;;;20.12;42.32;92849.63;5089253;28;20225;-80
2022/04/01 05:49:30;;;;;;;53.30;11.97;;;;;;;20.21;42.16;92857.75;5087053;28;20631;-84
2022/04/01 05:51:57;;;;;;;59.87;11.63;;;;;;;20.34;42.11;92879.97;5088374;28;20247;-78
2022/04/01 05:54:26;;;;;;;72.07;11.70;;;;;;;20.41;42.27;92857.19;5089048;28;20192;-79
2022/04/01 05:56:53;;;;;;;53.17;10.37;;;;;;;20.49;42.39;92870.56;5088883;28;20217;-83
2022/04/01 05:59:22;;;;;;;56.17;9.60;;;;;;;20.62;42.73;92866.03;5089191;28;20189;-82
2022/04/01 06:01:59;;;;;;;46.07;10.00;;;;;;;20.74;42.86;92853.69;5088985;28;20190;-83
2022/04/01 06:04:56;;;;;;;43.43;10.70;;;;;;;20.89;42.91;92886.81;5088585;28;20221;-74
2022/04/01 06:07:29;;;;;;;44.47;9.93;;;;;;;21.08;42.71;92864.66;5086683;28;20197;-74
2022/04/01 06:10:05;;;;;;;50.23;9.33;;;;;;;21.41;42.73;92850.63;5089212;28;20639;-74
2022/04/01 06:12:41;;;;;;;46.57;9.30;;;;;;;21.73;42.75;92845.38;5089292;28;20197;-73
2022/04/01 06:15:19;;;;;;;49.33;9.87;;;;;;;21.99;42.37;92880.13;5089140;28;20292;-78
2022/04/01 06:18:04;;;;;;;45.85;10.73;;;;;;;22.33;42.38;92892.84;5089315;28;20205;-77
2022/04/01 06:20:34;;;;;;;40.97;9.23;;;;;;;22.77;42.18;92879.44;5088479;28;20193;-77
2022/04/01 06:23:08;;;;;;;34.90;7.80;;;;;;;23.19;41.49;92888.94;5088554;28;20672;-76
2022/04/01 06:25:40;;;;;;;51.38;9.90;;;;;;;23.67;41.22;92877.22;5088619;28;20732;-78
2022/04/01 06:28:16;;;;;;;40.70;9.18;;;;;;;24.23;40.58;92890.16;5088950;28;20197;-76
2022/04/01 06:30:45;;;;;;;41.00;9.05;;;;;;;24.76;40.07;92893.09;5088248;28;20217;-76
2022/04/01 06:33:23;;;;;;;54.00;10.25;;;;;;;24.95;39.37;92842.78;5088674;28;20193;-74
2022/04/01 06:35:57;;;;;;;36.50;10.00;;;;;;;26.03;38.95;92882.78;5086777;28;20201;-74
2022/04/01 06:38:35;;;;;;;47.17;10.65;;;;;;;26.66;38.07;92902.84;5088091;28;20676;-75
2022/04/01 06:41:06;;;;;;;46.00;9.52;;;;;;;27.26;37.13;92914.38;5088623;28;20194;-74
2022/04/01 06:43:34;;;;;;;57.65;11.63;;;;;;;27.87;36.19;92907.44;5087475;28;20209;-74
2022/04/01 06:46:01;;;;;;;43.22;10.45;;;;;;;28.44;35.59;92892.25;5088368;28;20190;-78
2022/04/01 06:48:29;;;;;;;43.53;10.43;;;;;;;29.07;34.98;92913.66;5089395;28;20189;-77
2022/04/01 06:50:58;;;;;;;49.05;9.60;;;;;;;29.64;33.93;92932.41;5089042;28;20228;-73
2022/04/01 06:53:26;;;;;;;38.10;10.32;;;;;;;30.21;33.17;92936.03;5089121;28;20229;-73
2022/04/01 06:55:54;;;;;;;42.63;10.07;;;;;;;30.78;32.39;92918.75;5088461;28;20636;-75
2022/04/01 06:58:21;;;;;;;41.15;9.10;;;;;;;31.30;32.05;92919.63;5087255;28;20213;-73
2022/04/01 07:00:48;;;;;;;38.92;9.35;;;;;;;31.80;31.43;92919.16;5088381;28;20502;-74
2022/04/01 07:03:15;;;;;;;41.05;10.52;;;;;;;32.30;30.95;92918.63;5088846;28;20194;-75
2022/04/01 07:05:42;;;;;;;44.72;11.25;;;;;;;32.76;29.88;92924.97;5091664;28;20636;-74
2022/04/01 07:08:12;;;;;;;45.25;10.07;;;;;;;33.21;29.65;92925.22;5092829;28;20182;-75
2022/04/01 07:10:40;;;;;;;44.63;11.50;;;;;;;33.64;28.83;92936.63;5092058;28;20194;-74
2022/04/01 07:13:08;;;;;;;41.65;9.50;;;;;;;34.08;28.59;92931.72;5092572;28;20193;-73
2022/04/01 07:15:35;;;;;;;43.92;9.88;;;;;;;34.45;28.17;92937.88;5092047;28;20540;-75
2022/04/01 07:18:02;;;;;;;40.80;11.20;;;;;;;34.79;27.44;92936.72;5092148;28;20883;-74
2022/04/01 07:20:29;;;;;;;52.65;10.93;;;;;;;35.11;26.97;92916.47;5092208;28;20637;-72
2022/04/01 07:22:56;;;;;;;45.45;11.50;;;;;;;35.41;26.58;92910.88;5092156;28;20701;-74
2022/04/01 07:25:25;;;;;;;47.33;11.52;;;;;;;35.74;26.40;92909.88;5091887;28;20234;-73
2022/04/01 07:27:52;;;;;;;40.08;10.68;;;;;;;36.02;25.90;92916.00;5091772;28;20193;-75
2022/04/01 07:30:19;;;;;;;44.50;10.93;;;;;;;36.21;25.78;92923.31;5091491;28;20193;-78
2022/04/01 07:32:50;;;;;;;51.40;11.85;;;;;;;36.51;25.17;92937.03;5092051;28;20194;-74
2022/04/01 07:35:18;;;;;;;35.92;9.32;;;;;;;36.76;24.98;92887.00;5091679;28;20204;-74
2022/04/01 07:37:45;;;;;;;45.85;9.38;;;;;;;36.98;24.42;92908.84;5092521;28;20233;-73
2022/04/01 07:40:13;;;;;;;39.67;11.30;;;;;;;37.19;24.27;92908.53;5091620;28;20182;-75
2022/04/01 07:42:42;;;;;;;42.35;11.30;;;;;;;37.36;23.88;92895.56;5091411;28;20193;-75
2022/04/01 07:45:10;;;;;;;53.33;11.63;;;;;;;37.55;23.59;92908.16;5090966;28;20209;-75
2022/04/01 07:47:37;;;;;;;46.65;11.00;;;;;;;37.74;23.67;92903.94;5088550;28;20728;-75
2022/04/01 07:50:06;;;;;;;43.47;11.10;;;;;;;37.93;23.59;92903.97;5088831;28;20623;-74
2022/04/01 07:52:33;;;;;;;46.60;11.27;;;;;;;38.08;23.15;92905.00;5091692;28;20233;-77
2022/04/01 07:55:01;;;;;;;41.53;11.25;;;;;;;38.27;22.81;92890.84;5091064;28;20648;-75
2022/04/01 07:57:28;;;;;;;47.55;10.40;;;;;;;38.39;22.76;92891.47;5091707;28;20205;-73
2022/04/01 07:59:56;;;;;;;49.80;10.55;;;;;;;38.55;22.42;92911.91;5090929;28;20411;-75
2022/04/01 08:02:22;;;;;;;42.88;12.07;;;;;;;38.68;22.07;92878.53;5091147;28;20193;-74
2022/04/01 08:04:49;;;;;;;57.20;11.65;;;;;;;38.75;22.04;92909.97;5091127;28;20333;-75
2022/04/01 08:07:16;;;;;;;43.28;11.48;;;;;;;38.79;21.67;92874.16;5091099;28;20691;-76
2022/04/01 08:09:44;;;;;;;54.90;12.10;;;;;;;38.83;21.40;92903.63;5088942;28;20205;-74
2022/04/01 08:12:10;;;;;;;42.92;10.45;;;;;;;38.85;21.06;92869.28;5091244;28;20205;-75
2022/04/01 08:14:39;;;;;;;38.97;11.13;;;;;;;38.81;21.08;92898.63;5088690;28;20410;-73
2022/04/01 08:17:11;;;;;;;43.00;9.73;;;;;;;38.86;21.08;92892.19;5090377;28;20212;-74
2022/04/01 08:19:38;;;;;;;34.33;10.00;;;;;;;38.81;20.81;92903.19;5091121;28;20258;-74
2022/04/01 08:22:05;;;;;;;48.97;11.45;;;;;;;38.77;20.34;92868.38;5090969;28;20199;-74
2022/04/01 08:24:32;;;;;;;36.25;8.60;;;;;;;38.74;20.68;92905.75;5090754;28;20233;-74
2022/04/01 08:27:00;;;;;;;56.70;11.63;;;;;;;38.64;20.59;92894.50;5090504;28;20186;-77
2022/04/01 08:29:27;;;;;;;46.90;10.32;;;;;;;38.42;20.39;92884.63;5090499;28;20706;-75
2022/04/01 08:31:54;;;;;;;49.80;10.15;;;;;;;38.34;20.42;92869.59;5091072;28;20189;-75
2022/04/01 08:34:22;;;;;;;37.33;10.05;;;;;;;38.24;20.59;92860.25;5090509;28;20243;-76
2022/04/01 08:36:49;;;;;;;53.38;10.68;;;;;;;38.06;20.76;92869.88;5090629;28;20197;-74
2022/04/01 08:39:17;;;;;;;52.15;11.52;;;;;;;37.92;20.94;92864.28;5090829;28;20189;-74
2022/04/01 08:41:44;;;;;;;55.63;10.88;;;;;;;37.65;21.02;92845.47;5090995;28;20287;-75
2022/04/01 08:44:11;;;;;;;51.28;10.02;;;;;;;37.39;21.36;92862.91;5090097;28;20202;-74
2022/04/01 08:46:37;;;;;;;47.83;10.68;;;;;;;37.09;21.24;92862.66;5090648;28;20190;-74
2022/04/01 08:49:06;;;;;;;57.08;10.55;;;;;;;36.72;21.33;92826.78;5088493;28;20190;-74
2022/04/01 08:51:35;;;;;;;60.28;11.57;;;;;;;36.45;21.56;92839.13;5090588;28;20632;-74
2022/04/01 08:54:03;;;;;;;61.17;10.38;;;;;;;36.18;21.85;92836.16;5089646;28;20361;-75
2022/04/01 08:56:30;;;;;;;61.03;11.35;;;;;;;35.82;22.14;92794.56;5089214;28;20198;-77
2022/04/01 08:58:58;;;;;;;43.40;10.40;;;;;;;35.47;22.31;92784.56;5088049;28;20205;-74
2022/04/01 09:01:24;;;;;;;41.35;10.18;;;;;;;35.24;22.53;92776.34;5087942;28;20610;-74
2022/04/01 09:03:55;;;;;;;43.72;9.40;;;;;;;35.09;22.89;92772.53;5087943;28;20201;-74
2022/04/01 09:06:22;;;;;;;41.00;9.00;;;;;;;34.97;22.94;92761.94;5087651;28;20193;-73
2022/04/01 09:08:58;;;;;;;53.28;9.18;;;;;;;34.75;23.11;92746.47;5087573;28;20190;-74
2022/04/01 09:11:25;;;;;;;52.47;10.02;;;;;;;34.58;23.24;92764.22;5087166;28;20193;-75
2022/04/01 09:13:52;;;;;;;43.08;9.80;;;;;;;34.39;23.30;92734.81;5087825;28;20194;-75
2022/04/01 09:16:27;;;;;;;35.35;9.80;;;;;;;34.20;23.79;92732.75;5087705;28;20193;-75
2022/04/01 09:18:56;;;;;;;46.00;9.98;;;;;;;34.05;23.64;92744.78;5087365;28;20197;-74
2022/04/01 09:21:27;;;;;;;52.78;10.05;;;;;;;33.92;23.55;92730.72;5087435;28;20201;-73
2022/04/01 09:23:56;;;;;;;54.45;10.52;;;;;;;33.71;23.96;92706.19;5087652;28;20225;-74
2022/04/01 09:26:30;;;;;;;45.53;11.25;;;;;;;33.48;23.84;92692.59;5087498;28;20193;-81
2022/04/01 09:28:57;;;;;;;50.92;9.70;;;;;;;33.31;24.15;92735.91;5087202;28;20255;-76
2022/04/01 09:31:25;;;;;;;50.00;9.52;;;;;;;33.13;24.60;92727.38;5086705;28;20181;-75
2022/04/01 09:33:54;;;;;;;53.70;10.93;;;;;;;32.85;24.75;92697.22;5086909;28;20652;-76
2022/04/01 09:36:26;;;;;;;46.00;9.68;;;;;;;32.69;24.70;92700.47;5087244;28;20255;-78
2022/04/01 09:39:03;;;;;;;55.22;9.80;;;;;;;32.51;25.16;92701.69;5085297;28;20201;-77
2022/04/01 09:41:36;;;;;;;47.97;9.77;;;;;;;32.31;25.28;92694.50;5086937;28;20248;-77
2022/04/01 09:44:06;;;;;;;47.88;10.25;;;;;;;32.12;25.68;92698.34;5084516;28;20998;-79
2022/04/01 09:46:33;;;;;;;46.55;10.05;;;;;;;31.93;25.38;92690.06;5086856;28;20197;-77
2022/04/01 09:49:00;;;;;;;45.13;9.65;;;;;;;31.86;25.44;92684.50;5087346;28;20189;-73
2022/04/01 09:51:30;;;;;;;56.83;10.23;;;;;;;31.76;25.89;92698.06;5089279;28;20540;-78
2022/04/01 09:54:02;;;;;;;46.67;9.93;;;;;;;31.77;25.71;92710.16;5089936;28;20709;-75
2022/04/01 09:56:44;;;;;;;40.35;8.90;;;;;;;31.71;25.84;92717.50;5089408;28;20888;-77
2022/04/01 09:59:14;;;;;;;50.22;9.65;;;;;;;31.63;25.76;92715.69;5089223;28;20190;-81
2022/04/01 10:01:43;;;;;;;43.83;9.93;;;;;;;31.60;26.19;92717.06;5089790;28;20704;-74
2022/04/01 10:04:12;;;;;;;36.72;9.70;;;;;;;31.51;25.99;92697.84;5089659;28;20189;-80
2022/04/01 10:06:40;;;;;;;47.38;10.10;;;;;;;31.45;26.06;92734.25;5089678;28;20194;-77
2022/04/01 10:09:09;;;;;;;44.80;10.52;;;;;;;31.40;26.39;92720.44;5092730;28;20201;-83
2022/04/01 10:11:37;;;;;;;47.38;9.52;;;;;;;31.24;26.22;92734.09;5094280;28;20314;-85
2022/04/01 10:14:09;;;;;;;45.95;9.57;;;;;;;31.13;26.58;92738.19;5088992;28;20747;-84
2022/04/01 10:16:36;;;;;;;40.78;10.52;;;;;;;30.93;26.57;92713.19;5088695;28;20193;-83
2022/04/01 10:19:08;;;;;;;53.55;9.45;;;;;;;30.97;26.68;92737.88;5092008;28;20197;-83
2022/04/01 10:21:36;;;;;;;56.15;10.00;;;;;;;30.83;26.82;92733.84;5091004;28;20205;-80
2022/04/01 10:24:10;;;;;;;59.83;9.48;;;;;;;30.71;26.84;92714.13;5094012;28;20213;-76
2022/04/01 10:26:50;;;;;;;41.55;9.80;;;;;;;30.56;27.01;92696.09;5090602;28;20196;-76
2022/04/01 10:29:19;;;;;;;37.63;8.10;;;;;;;30.44;27.16;92703.84;5088533;28;20193;-73
2022/04/01 10:31:54;;;;;;;49.58;10.43;;;;;;;30.32;27.10;92696.56;5087590;28;20683;-74
2022/04/01 10:34:22;;;;;;;49.78;9.68;;;;;;;30.21;27.42;92684.75;5089678;28;20283;-72
2022/04/01 10:36:59;;;;;;;52.08;8.80;;;;;;;30.02;27.20;92711.38;5089066;28;20277;-75
2022/04/01 10:39:29;;;;;;;41.45;8.75;;;;;;;29.89;27.59;92686.69;5090398;28;20675;-75
2022/04/01 10:42:07;;;;;;;40.33;9.60;;;;;;;29.71;27.73;92679.84;5090039;28;20603;-76
2022/04/01 10:44:53;;;;;;;37.00;8.25;;;;;;;29.61;27.38;92694.03;5092471;28;20193;-77
2022/04/01 10:47:23;;;;;;;46.35;8.75;;;;;;;29.40;27.61;92677.97;5093004;28;20197;-78
2022/04/01 10:52:35;;;;;;;41.55;8.70;;;;;;;29.21;28.32;92693.22;5090488;28;20788;-74
2022/04/01 10:55:16;;;;;;;45.65;8.55;;;;;;;29.18;28.37;92699.88;5092748;28;20655;-73
2022/04/01 10:57:45;;;;;;;33.25;7.97;;;;;;;29.10;28.29;92660.34;5090314;28;20212;-73
2022/04/01 11:00:17;;;;;;;48.55;7.75;;;;;;;29.00;28.38;92690.31;5092633;28;20204;-73
2022/04/01 11:02:46;;;;;;;39.10;7.97;;;;;;;28.94;28.36;92683.63;5092994;28;20189;-73
2022/04/01 11:05:31;;;;;;;50.58;8.77;;;;;;;28.92;28.41;92677.88;5092286;28;20229;-73
2022/04/01 11:08:21;;;;;;;45.30;8.20;;;;;;;28.88;28.45;92675.06;5089657;28;20276;-73
2022/04/01 11:11:07;;;;;;;44.47;8.32;;;;;;;28.86;28.13;92658.03;5092987;28;20261;-73
2022/04/01 11:13:34;;;;;;;32.72;7.70;;;;;;;28.75;28.16;92613.53;5090379;28;20289;-80
2022/04/01 11:16:16;;;;;;;36.10;8.38;;;;;;;28.95;28.16;92628.03;5093491;28;20198;-76
2022/04/01 11:19:10;;;;;;;37.75;7.90;;;;;;;28.97;28.13;92640.91;5092854;28;20192;-76
2022/04/01 11:21:37;;;;;;;32.83;7.18;;;;;;;28.81;28.09;92632.63;5008134;28;20189;-76
2022/04/01 11:24:04;;;;;;;32.63;8.10;;;;;;;28.68;28.55;92678.97;5010610;28;20219;-73
2022/04/01 11:26:41;;;;;;;35.22;7.43;;;;;;;28.47;28.33;92678.66;5009718;28;20315;-74
2022/04/01 11:29:17;;;;;;;38.35;8.02;;;;;;;28.23;28.66;92699.91;5010003;28;20188;-77
2022/04/01 11:31:48;;;;;;;40.55;8.63;;;;;;;27.95;28.92;92680.81;5005797;28;20294;-75
2022/04/01 11:34:15;;;;;;;40.95;8.38;;;;;;;27.79;29.05;92703.19;5009937;28;20199;-73
2022/04/01 11:36:43;;;;;;;38.08;8.45;;;;;;;27.59;29.09;92700.94;5009976;28;20571;-74
2022/04/01 11:39:17;;;;;;;30.63;7.25;;;;;;;27.40;29.57;92722.03;5008920;28;20192;-73
2022/04/01 11:41:54;;;;;;;33.42;7.78;;;;;;;27.20;29.81;92710.03;5010260;28;20196;-80